Time;durP1;ratioP1;P1;durP2;ratioP2;P2;SDS_P1;SDS_P2;PMS_P1;PMS_P2;Temp;Humidity;BMP_temperature;BMP_pressure;BME280_temperature;BME280_humidity;BME280_pressure;Samples;Min_cycle;Max_cycle;Signal;HPM_P1;HPM_P2
2021/10/09 00:02:03;;;;;;;23.75;11.00;;;;;;;7.33;76.99;102543.75;5008554;28;20060;-79
2021/10/09 00:04:30;;;;;;;31.52;11.27;;;;;;;7.23;76.91;102539.53;5015791;28;20133;-79
2021/10/09 00:06:59;;;;;;;23.02;10.80;;;;;;;7.21;77.50;102543.94;5019980;28;20056;-77
2021/10/09 00:09:28;;;;;;;28.38;12.40;;;;;;;7.25;77.02;102539.50;5014800;28;20037;-80
2021/10/09 00:11:55;;;;;;;27.90;12.20;;;;;;;7.30;77.70;102542.94;5017803;28;20064;-78
2021/10/09 00:14:25;;;;;;;25.02;11.32;;;;;;;7.28;77.27;102540.31;5014650;28;20577;-81
2021/10/09 00:16:53;;;;;;;26.08;12.23;;;;;;;7.18;77.64;102538.72;5020880;28;20125;-77
2021/10/09 00:19:21;;;;;;;36.15;11.43;;;;;;;7.15;77.94;102540.53;5012821;28;20948;-81
2021/10/09 00:21:51;;;;;;;26.13;11.77;;;;;;;7.13;77.69;102537.94;5017055;28;20052;-80
2021/10/09 00:24:20;;;;;;;25.58;12.02;;;;;;;7.13;77.59;102537.94;5015905;28;20494;-79
2021/10/09 00:26:47;;;;;;;31.17;12.60;;;;;;;7.03;77.70;102537.19;5018626;28;20509;-81
2021/10/09 00:29:15;;;;;;;25.90;11.50;;;;;;;7.03;78.85;102544.19;5013723;28;20042;-83
2021/10/09 00:31:46;;;;;;;28.60;10.93;;;;;;;6.97;78.57;102531.16;5004143;28;20045;-80
2021/10/09 00:34:14;;;;;;;30.52;12.20;;;;;;;6.98;78.71;102538.13;5007848;28;20052;-82
2021/10/09 00:36:46;;;;;;;28.45;12.77;;;;;;;6.89;78.88;102538.25;5013520;28;20049;-79
2021/10/09 00:39:15;;;;;;;25.70;11.75;;;;;;;6.74;79.87;102537.56;5012360;28;20046;-82
2021/10/09 00:41:44;;;;;;;24.17;11.60;;;;;;;6.84;79.73;102543.53;5019593;28;20049;-81
2021/10/09 00:44:17;;;;;;;22.85;11.63;;;;;;;6.87;79.32;102545.28;4989429;28;20079;-82
2021/10/09 00:46:48;;;;;;;24.45;11.85;;;;;;;6.69;80.02;102544.59;4990451;28;20557;-81
2021/10/09 00:49:16;;;;;;;27.80;12.18;;;;;;;6.86;79.43;102539.19;5014423;28;20710;-81
2021/10/09 00:51:46;;;;;;;27.10;12.93;;;;;;;6.71;79.70;102542.84;5023421;28;20042;-83
2021/10/09 00:54:16;;;;;;;28.08;11.88;;;;;;;6.85;78.91;102546.16;5006832;28;20069;-83
2021/10/09 00:56:46;;;;;;;25.73;11.43;;;;;;;6.80;79.14;102544.50;5023211;28;20050;-83
2021/10/09 00:59:15;;;;;;;27.17;11.60;;;;;;;6.71;80.53;102542.84;5012594;28;20056;-81
2021/10/09 01:01:43;;;;;;;29.25;13.00;;;;;;;6.79;79.13;102554.06;5016816;28;20387;-82
2021/10/09 01:04:12;;;;;;;25.85;12.02;;;;;;;6.79;78.68;102546.22;5010590;28;20048;-83
2021/10/09 01:06:47;;;;;;;24.20;12.43;;;;;;;6.72;79.63;102543.72;4999265;28;20128;-82
2021/10/09 01:09:16;;;;;;;27.60;13.25;;;;;;;6.69;79.60;102547.22;5005966;28;20059;-81
2021/10/09 01:11:44;;;;;;;29.00;11.88;;;;;;;6.66;79.56;102543.78;4996867;28;20045;-82
2021/10/09 01:14:14;;;;;;;28.27;11.50;;;;;;;6.55;80.33;102552.63;4989033;28;20038;-83
2021/10/09 01:16:46;;;;;;;28.63;12.48;;;;;;;6.68;79.26;102548.13;4994703;28;20064;-83
2021/10/09 01:19:16;;;;;;;26.67;13.35;;;;;;;6.62;79.20;102548.22;4997265;28;20055;-82
2021/10/09 01:21:49;;;;;;;40.13;14.35;;;;;;;6.66;79.56;102546.38;5012158;28;20665;-79
2021/10/09 01:24:18;;;;;;;32.58;12.77;;;;;;;6.67;79.44;102542.91;5001933;28;21470;-83
2021/10/09 01:26:46;;;;;;;26.60;12.52;;;;;;;6.60;79.67;102545.59;5015190;28;20049;-81
2021/10/09 01:29:15;;;;;;;25.42;13.02;;;;;;;6.64;79.54;102550.78;5011426;28;20053;-82
2021/10/09 01:31:45;;;;;;;32.60;13.57;;;;;;;6.55;79.69;102542.16;5012049;28;20144;-79
2021/10/09 01:34:22;;;;;;;29.10;12.68;;;;;;;6.46;80.15;102541.41;5014890;28;20034;-82
2021/10/09 01:36:51;;;;;;;22.63;12.13;;;;;;;6.48;79.79;102540.47;5022108;28;20049;-79
2021/10/09 01:39:19;;;;;;;33.63;14.57;;;;;;;6.56;79.39;102537.78;5010239;28;20045;-79
2021/10/09 01:41:51;;;;;;;32.67;13.43;;;;;;;6.59;78.59;102537.75;5006022;28;20059;-79
2021/10/09 01:44:25;;;;;;;22.90;12.10;;;;;;;6.51;79.53;102531.75;5011260;28;20045;-80
2021/10/09 01:46:52;;;;;;;33.75;13.05;;;;;;;6.44;81.02;102541.44;5020887;28;20037;-84
2021/10/09 01:49:20;;;;;;;29.02;13.00;;;;;;;6.48;79.25;102537.00;4972442;28;20049;-81
2021/10/09 01:51:48;;;;;;;26.63;12.70;;;;;;;6.37;80.00;102534.53;5023408;28;20388;-81
2021/10/09 01:54:18;;;;;;;33.53;12.70;;;;;;;6.35;80.40;102536.31;5009856;28;20045;-81
2021/10/09 01:56:47;;;;;;;24.60;12.13;;;;;;;6.25;80.52;102537.25;5009582;28;20065;-84
2021/10/09 01:59:15;;;;;;;27.55;12.15;;;;;;;6.27;81.13;102538.13;5013032;28;20384;-84
2021/10/09 02:01:51;;;;;;;27.70;12.02;;;;;;;6.31;80.02;102539.81;5001710;28;20514;-80
2021/10/09 02:04:19;;;;;;;32.40;13.02;;;;;;;6.29;80.02;102542.44;5000410;28;20041;-79
2021/10/09 02:07:00;;;;;;;29.33;13.57;;;;;;;6.32;79.83;102536.31;5015506;28;20109;-81
2021/10/09 02:09:28;;;;;;;30.52;13.27;;;;;;;6.31;80.31;102542.44;5038974;28;20132;-79
2021/10/09 02:11:57;;;;;;;27.05;12.43;;;;;;;6.21;80.94;102541.63;5028456;28;20128;-82
2021/10/09 02:14:44;;;;;;;32.08;12.93;;;;;;;6.15;80.36;102546.09;5025460;28;20640;-78
2021/10/09 02:25:50;;;;;;;31.58;13.60;;;;;;;6.13;80.95;102547.88;5020166;28;20489;-84
2021/10/09 02:28:21;;;;;;;26.48;13.30;;;;;;;6.00;81.45;102547.09;5028590;28;20124;-83
2021/10/09 02:30:50;;;;;;;28.65;12.50;;;;;;;6.06;81.61;102547.91;5023882;28;20127;-78
2021/10/09 02:33:18;;;;;;;26.48;12.77;;;;;;;6.19;80.63;102547.78;5020470;28;20118;-80
2021/10/09 02:35:47;;;;;;;30.10;13.18;;;;;;;5.93;81.55;102551.50;5001526;28;20056;-78
2021/10/09 02:38:27;;;;;;;31.00;13.75;;;;;;;5.98;82.07;102544.47;5015129;28;20434;-82
2021/10/09 02:41:06;;;;;;;28.45;13.77;;;;;;;5.81;82.66;102548.97;5025215;28;20101;-80
2021/10/09 02:43:37;;;;;;;34.63;14.90;;;;;;;5.85;83.28;102558.50;5004054;28;20042;-79
2021/10/09 02:46:06;;;;;;;19.35;11.60;;;;;;;5.91;82.57;102553.25;5020547;28;20542;-79
2021/10/09 02:48:38;;;;;;;27.17;12.63;;;;;;;5.93;82.02;102554.13;5011787;28;20060;-80
2021/10/09 02:51:06;;;;;;;32.63;14.45;;;;;;;6.08;80.88;102563.59;4995856;28;20068;-78
2021/10/09 02:53:35;;;;;;;28.75;12.48;;;;;;;6.05;80.42;102559.25;5010981;28;20057;-80
2021/10/09 02:56:17;;;;;;;29.35;12.77;;;;;;;6.07;80.71;102562.69;5021896;28;20129;-82
2021/10/09 02:58:47;;;;;;;26.13;12.80;;;;;;;6.13;80.54;102559.19;5020609;28;20120;-80
2021/10/09 03:01:14;;;;;;;35.97;14.48;;;;;;;5.97;81.21;102562.81;5014164;28;20061;-80
2021/10/09 03:03:56;;;;;;;30.90;12.95;;;;;;;5.97;80.78;102558.44;5028945;28;20216;-81
2021/10/09 03:06:23;;;;;;;28.23;13.05;;;;;;;5.94;81.18;102563.69;5005819;28;20056;-80
2021/10/09 03:08:52;;;;;;;33.20;13.10;;;;;;;5.88;81.34;102553.25;5016364;28;20050;-83
2021/10/09 03:11:21;;;;;;;27.52;13.57;;;;;;;5.86;81.64;102562.88;5018559;28;20045;-79
2021/10/09 03:13:49;;;;;;;25.48;12.95;;;;;;;5.79;82.38;102558.56;5030743;28;20659;-79
2021/10/09 03:16:22;;;;;;;28.05;12.88;;;;;;;5.76;82.99;102553.34;5020153;28;20051;-82
2021/10/09 03:18:51;;;;;;;33.47;12.65;;;;;;;5.64;83.61;102563.94;5015641;28;20041;-79
2021/10/09 03:21:21;;;;;;;31.48;12.60;;;;;;;5.62;84.29;102565.66;5017596;28;20060;-81
2021/10/09 03:23:50;;;;;;;24.75;12.18;;;;;;;5.48;85.24;102566.63;5022116;28;20089;-79
2021/10/09 03:26:17;;;;;;;28.67;13.05;;;;;;;5.41;84.79;102572.78;5017411;28;20477;-82
2021/10/09 03:28:48;;;;;;;27.30;13.05;;;;;;;5.34;85.67;102576.28;5005660;28;20111;-81
2021/10/09 03:31:37;;;;;;;28.73;13.05;;;;;;;5.49;85.04;102576.22;5026896;28;20060;-79
2021/10/09 03:34:04;;;;;;;28.00;13.80;;;;;;;5.44;85.07;102577.97;4997086;28;20060;-80
2021/10/09 03:36:33;;;;;;;31.88;14.02;;;;;;;5.44;85.07;102575.34;5023594;28;20048;-80
2021/10/09 03:39:07;;;;;;;31.00;13.35;;;;;;;5.50;84.90;102571.88;5029594;28;20081;-84
2021/10/09 03:41:36;;;;;;;35.20;14.43;;;;;;;5.42;85.29;102576.25;5036520;28;20069;-84
2021/10/09 03:44:05;;;;;;;22.55;12.15;;;;;;;5.42;85.76;102578.88;5038545;28;20329;-85
2021/10/09 03:46:41;;;;;;;27.13;12.82;;;;;;;5.32;86.64;102575.44;5014407;28;20122;-84
2021/10/09 03:49:22;;;;;;;30.13;13.70;;;;;;;5.27;86.70;102577.22;5030516;28;20053;-85
2021/10/09 03:54:35;;;;;;;23.40;13.38;;;;;;;5.20;86.93;102576.38;5027237;28;20109;-81
2021/10/09 03:57:03;;;;;;;24.98;13.20;;;;;;;5.22;86.66;102577.25;5006499;28;20129;-78
2021/10/09 03:59:30;;;;;;;29.02;13.55;;;;;;;5.28;86.70;102586.78;5021929;28;20045;-78
2021/10/09 04:01:57;;;;;;;27.75;14.35;;;;;;;5.21;86.95;102575.50;5028491;28;20125;-81
2021/10/09 04:04:28;;;;;;;31.30;13.57;;;;;;;5.19;87.09;102577.25;5014918;28;20046;-80
2021/10/09 04:06:55;;;;;;;25.45;14.52;;;;;;;5.22;87.14;102576.34;5023082;28;20508;-80
2021/10/09 04:09:22;;;;;;;32.83;14.18;;;;;;;5.20;86.63;102578.13;5020234;28;20148;-81
2021/10/09 04:11:50;;;;;;;29.80;13.88;;;;;;;5.13;87.45;102577.28;5020321;28;20060;-80
2021/10/09 04:14:17;;;;;;;33.95;13.65;;;;;;;5.07;87.53;102572.97;5022704;28;20097;-81
2021/10/09 04:16:44;;;;;;;27.38;13.43;;;;;;;5.11;87.01;102578.19;5015194;28;20046;-77
2021/10/09 04:19:12;;;;;;;28.73;14.25;;;;;;;5.01;87.82;102569.53;5009906;28;20056;-81
2021/10/09 04:21:39;;;;;;;26.73;12.90;;;;;;;5.13;87.33;102571.19;5024751;28;20049;-80
2021/10/09 04:24:07;;;;;;;26.35;11.73;;;;;;;5.14;86.85;102579.03;5022742;28;20404;-81
2021/10/09 04:26:34;;;;;;;25.27;12.80;;;;;;;5.08;86.89;102574.69;5011549;28;20050;-77
2021/10/09 04:29:02;;;;;;;27.73;13.88;;;;;;;4.96;87.89;102574.75;5019035;28;20113;-85
2021/10/09 04:31:29;;;;;;;28.45;13.00;;;;;;;4.89;88.53;102572.19;5038613;28;20088;-78
2021/10/09 04:33:57;;;;;;;24.90;14.23;;;;;;;4.88;88.99;102575.66;5013388;28;20117;-85
2021/10/09 04:36:25;;;;;;;28.60;13.55;;;;;;;4.88;88.13;102576.53;5024968;28;20344;-79
2021/10/09 04:38:52;;;;;;;36.92;14.75;;;;;;;4.95;87.69;102582.59;5029343;28;20122;-82
2021/10/09 04:41:19;;;;;;;22.30;13.52;;;;;;;4.99;87.33;102579.09;5012851;28;20576;-79
2021/10/09 04:43:47;;;;;;;30.45;14.07;;;;;;;4.96;87.93;102577.38;5008884;28;20196;-79
2021/10/09 04:46:14;;;;;;;25.92;13.13;;;;;;;4.97;87.54;102586.06;5033076;28;20504;-78
2021/10/09 04:48:42;;;;;;;21.45;13.52;;;;;;;4.91;88.19;102581.75;5033999;28;20101;-83
2021/10/09 04:51:12;;;;;;;29.52;14.73;;;;;;;4.96;88.02;102579.13;5039325;28;20088;-81
2021/10/09 04:53:40;;;;;;;25.02;13.88;;;;;;;4.80;88.32;102580.91;5025039;28;20129;-79
2021/10/09 04:56:07;;;;;;;26.00;13.68;;;;;;;4.77;89.21;102583.53;5029478;28;20090;-81
2021/10/09 04:58:35;;;;;;;30.02;13.68;;;;;;;4.78;88.83;102574.84;5034832;28;20069;-81
2021/10/09 05:01:03;;;;;;;23.80;13.80;;;;;;;4.85;88.20;102584.38;5037479;28;20076;-79
2021/10/09 05:03:45;;;;;;;31.77;14.43;;;;;;;4.82;88.60;102584.41;5044251;28;20089;-80
2021/10/09 05:06:27;;;;;;;33.28;14.32;;;;;;;4.69;89.46;102583.56;5017415;28;20602;-80
2021/10/09 05:08:54;;;;;;;30.17;13.27;;;;;;;4.72;89.16;102585.28;5015286;28;20111;-78
2021/10/09 05:11:43;;;;;;;26.20;13.68;;;;;;;4.79;87.97;102587.88;5013128;28;20090;-83
2021/10/09 05:14:10;;;;;;;25.10;12.88;;;;;;;4.78;88.27;102590.50;5028734;28;20124;-83
2021/10/09 05:16:38;;;;;;;26.25;13.18;;;;;;;4.79;88.20;102597.44;5005991;28;20120;-80
2021/10/09 05:19:07;;;;;;;26.95;14.85;;;;;;;4.76;88.16;102605.28;5022397;28;20428;-83
2021/10/09 05:21:37;;;;;;;39.28;13.68;;;;;;;4.79;88.03;102602.66;4995824;28;20403;-80
2021/10/09 05:24:04;;;;;;;25.80;13.95;;;;;;;4.68;88.78;102604.41;5006470;28;20109;-83
2021/10/09 05:26:32;;;;;;;24.17;12.48;;;;;;;4.77;88.29;102607.00;5004817;28;20053;-80
2021/10/09 05:29:01;;;;;;;30.42;13.77;;;;;;;4.77;87.58;102607.91;4990286;28;20400;-82
2021/10/09 05:31:32;;;;;;;31.73;14.57;;;;;;;4.85;87.08;102617.44;5015510;28;20109;-80
2021/10/09 05:34:00;;;;;;;23.13;12.82;;;;;;;4.85;86.91;102610.47;5012622;28;20125;-81
2021/10/09 05:36:28;;;;;;;27.65;13.32;;;;;;;4.80;87.12;102618.31;5020076;28;20046;-81
2021/10/09 05:38:55;;;;;;;32.00;13.70;;;;;;;4.79;87.90;102623.53;5022400;28;20060;-79
2021/10/09 05:41:23;;;;;;;30.25;13.70;;;;;;;4.82;87.67;102613.09;5012979;28;20112;-78
2021/10/09 05:43:50;;;;;;;37.58;15.52;;;;;;;4.81;87.63;102625.25;5022125;28;20467;-81
2021/10/09 05:46:19;;;;;;;27.60;14.13;;;;;;;4.86;87.07;102630.47;5038150;28;20068;-82
2021/10/09 05:48:55;;;;;;;27.70;14.10;;;;;;;4.78;87.39;102630.50;5029469;28;20105;-78
2021/10/09 05:51:27;;;;;;;28.75;14.45;;;;;;;4.82;87.69;102634.84;5006545;28;20052;-78
2021/10/09 05:54:07;;;;;;;35.75;14.20;;;;;;;4.85;87.23;102633.94;4998737;28;20062;-78
2021/10/09 05:56:46;;;;;;;27.10;13.50;;;;;;;4.92;86.68;102632.22;5012277;28;20053;-81
2021/10/09 05:59:34;;;;;;;25.83;13.43;;;;;;;4.87;87.07;102637.44;5023623;28;20085;-81
2021/10/09 06:25:23;;;;;;;;;;;;;;;4.93;86.78;102633.94;5016459;28;20564;-77
2021/10/09 06:49:31;;;;;;;29.02;15.10;;;;;;;6.27;77.72;102676.75;5029965;28;20125;-83
2021/10/09 07:00:28;;;;;;;29.90;12.80;;;;;;;6.77;76.56;102684.13;5015527;28;20105;-80
2021/10/09 07:02:56;;;;;;;19.50;12.07;;;;;;;7.18;74.21;102674.09;5038211;28;20124;-79
2021/10/09 07:05:23;;;;;;;23.27;12.55;;;;;;;6.94;73.55;102681.34;5002518;28;20052;-84
2021/10/09 07:07:54;;;;;;;25.48;13.95;;;;;;;6.90;73.59;102682.25;5009539;28;20121;-81
2021/10/09 07:10:22;;;;;;;24.45;12.20;;;;;;;7.01;73.07;102685.59;5000389;28;20042;-83
2021/10/09 07:12:49;;;;;;;26.30;13.05;;;;;;;7.36;71.47;102687.81;5015697;28;20061;-84
2021/10/09 07:15:18;;;;;;;20.13;12.60;;;;;;;7.46;71.22;102693.81;5012409;28;20204;-82
2021/10/09 07:17:46;;;;;;;27.52;12.23;;;;;;;7.80;69.22;102695.97;5038447;28;20088;-81
2021/10/09 07:20:14;;;;;;;25.40;12.10;;;;;;;8.88;66.31;102686.34;5027497;28;20086;-81
2021/10/09 07:22:45;;;;;;;27.33;12.65;;;;;;;9.61;62.19;102694.47;5028763;28;20140;-85
2021/10/09 07:25:19;;;;;;;29.17;11.85;;;;;;;11.53;55.79;102687.78;4997063;28;20056;-79
2021/10/09 07:27:46;;;;;;;23.02;11.55;;;;;;;13.47;50.22;102679.50;5019817;28;20038;-81
2021/10/09 07:30:14;;;;;;;20.08;10.88;;;;;;;14.57;45.62;102675.88;4998497;28;20052;-83
2021/10/09 07:32:44;;;;;;;20.35;11.88;;;;;;;14.66;45.32;102678.13;5024622;28;20046;-80
2021/10/09 07:35:12;;;;;;;26.13;10.10;;;;;;;15.51;43.26;102661.91;4996153;28;20060;-80
2021/10/09 07:37:40;;;;;;;24.17;10.13;;;;;;;15.72;41.40;102669.84;5025598;28;20060;-81
2021/10/09 07:40:08;;;;;;;18.77;10.25;;;;;;;17.16;39.14;102660.69;5016945;28;20481;-84
2021/10/09 07:42:36;;;;;;;15.43;9.40;;;;;;;18.66;36.17;102676.94;5026450;28;20046;-83
2021/10/09 07:45:04;;;;;;;22.75;9.32;;;;;;;18.33;35.92;102678.97;5004718;28;20060;-81
2021/10/09 07:47:33;;;;;;;21.35;9.85;;;;;;;18.61;35.19;102676.34;5000658;28;20054;-82
2021/10/09 07:50:00;;;;;;;18.73;10.27;;;;;;;18.30;35.56;102673.81;5026466;28;20061;-79
2021/10/09 07:52:28;;;;;;;22.00;11.05;;;;;;;19.15;33.17;102667.75;5027883;28;20454;-81
2021/10/09 07:54:55;;;;;;;24.38;9.75;;;;;;;17.06;36.79;102680.75;5007894;28;20116;-80
2021/10/09 07:57:22;;;;;;;21.45;10.07;;;;;;;17.71;36.39;102679.78;4988244;28;20056;-78
2021/10/09 07:59:50;;;;;;;22.80;10.15;;;;;;;18.37;35.25;102677.81;5013476;28;20062;-81
2021/10/09 08:02:18;;;;;;;19.02;9.05;;;;;;;19.20;33.94;102674.50;5019686;28;20034;-80
2021/10/09 08:04:46;;;;;;;18.73;9.48;;;;;;;19.24;32.79;102669.84;5012548;28;20071;-78
2021/10/09 08:07:14;;;;;;;23.25;9.88;;;;;;;18.27;34.00;102680.16;5023653;28;20030;-80
2021/10/09 08:09:41;;;;;;;20.55;9.00;;;;;;;18.34;33.67;102681.53;5017288;28;20392;-79
2021/10/09 08:12:08;;;;;;;16.77;9.32;;;;;;;18.83;33.80;102672.41;5018311;28;20106;-82
2021/10/09 08:14:36;;;;;;;19.00;9.05;;;;;;;21.03;30.07;102667.72;4985224;28;20050;-80
2021/10/09 08:17:03;;;;;;;15.77;9.30;;;;;;;20.51;30.22;102664.19;4986476;28;20068;-80
2021/10/09 08:19:31;;;;;;;14.55;8.68;;;;;;;21.40;29.70;102672.19;5014709;28;20534;-82
2021/10/09 08:22:02;;;;;;;18.13;9.40;;;;;;;20.85;29.88;102665.38;5018736;28;20054;-80
2021/10/09 08:24:42;;;;;;;18.65;9.40;;;;;;;21.43;29.13;102663.06;5016920;28;20054;-80
2021/10/09 08:27:18;;;;;;;13.48;8.93;;;;;;;21.96;28.35;102666.28;5011905;28;20059;-79
2021/10/09 08:36:00;;;;;;;19.58;9.35;;;;;;;20.45;29.84;102669.94;4955222;28;20042;-81
2021/10/09 08:41:15;;;;;;;12.93;8.00;;;;;;;20.59;30.23;102682.41;5024960;28;20037;-85
2021/10/09 08:43:44;;;;;;;16.80;8.05;;;;;;;19.72;30.64;102684.59;5017654;28;20037;-84
2021/10/09 08:46:11;;;;;;;12.30;7.15;;;;;;;20.03;29.71;102695.91;5023093;28;20402;-83
2021/10/09 08:48:46;;;;;;;17.25;8.60;;;;;;;20.01;29.72;102680.94;5016795;28;20049;-80
2021/10/09 08:51:18;;;;;;;14.98;7.30;;;;;;;19.96;30.16;102700.81;5025913;28;20053;-85
2021/10/09 08:53:45;;;;;;;14.48;7.97;;;;;;;19.91;30.04;102694.06;5015523;28;20033;-81
2021/10/09 08:56:42;;;;;;;17.25;7.45;;;;;;;20.98;28.45;102693.03;5016632;28;20056;-81
2021/10/09 08:59:12;;;;;;;15.85;7.95;;;;;;;20.88;28.84;102691.06;5018161;28;20077;-83
2021/10/09 09:04:25;;;;;;;15.02;7.90;;;;;;;21.10;28.60;102693.09;5014158;28;20049;-83
2021/10/09 09:32:45;;;;;;;11.52;6.32;;;;;;;13.23;42.12;102699.78;5018139;28;20038;-80
2021/10/09 09:35:20;;;;;;;13.18;6.50;;;;;;;12.56;42.61;102701.25;4993874;28;20050;-80
2021/10/09 09:40:36;;;;;;;11.95;5.78;;;;;;;12.03;44.45;102692.44;5024247;28;20456;-81
2021/10/09 09:43:03;;;;;;;12.48;6.50;;;;;;;12.09;44.49;102693.09;5016092;28;20064;-86
2021/10/09 09:45:31;;;;;;;18.15;6.80;;;;;;;12.18;44.98;102691.94;5019202;28;20076;-84
2021/10/09 09:48:02;;;;;;;13.65;6.55;;;;;;;12.09;45.33;102685.19;5018837;28;20046;-79
2021/10/09 09:50:30;;;;;;;15.90;6.50;;;;;;;12.23;45.71;102683.88;5004130;28;20056;-82
2021/10/09 09:53:00;;;;;;;17.33;6.53;;;;;;;12.21;45.56;102688.34;5004760;28;20156;-86
2021/10/09 09:55:28;;;;;;;11.32;5.97;;;;;;;12.09;45.42;102676.41;4986914;28;20043;-79
2021/10/09 09:58:11;;;;;;;13.20;5.97;;;;;;;12.18;45.69;102676.09;5017828;28;20463;-83
2021/10/09 10:00:38;;;;;;;14.20;5.18;;;;;;;12.27;45.21;102673.16;5017287;28;20048;-80
2021/10/09 10:03:06;;;;;;;8.18;5.57;;;;;;;12.40;44.59;102682.38;5017799;28;20056;-82
2021/10/09 10:05:34;;;;;;;11.75;5.70;;;;;;;12.39;44.24;102683.31;5020135;28;20040;-79
2021/10/09 10:08:01;;;;;;;8.73;5.00;;;;;;;12.30;44.07;102685.41;5021975;28;20064;-84
2021/10/09 10:10:30;;;;;;;10.07;5.07;;;;;;;12.15;44.08;102676.19;5015983;28;20076;-79
2021/10/09 10:12:59;;;;;;;10.75;5.00;;;;;;;12.20;43.51;102665.47;5016360;28;20042;-81
2021/10/09 10:15:29;;;;;;;9.85;5.30;;;;;;;12.26;43.93;102674.06;5017842;28;20042;-84
2021/10/09 10:17:57;;;;;;;12.20;4.60;;;;;;;12.24;43.74;102673.25;5018169;28;20050;-81
2021/10/09 10:20:45;;;;;;;10.05;5.32;;;;;;;12.34;43.85;102665.91;5012370;28;20068;-80
2021/10/09 10:23:36;;;;;;;11.68;5.65;;;;;;;12.51;43.86;102654.72;4998023;28;20097;-81
2021/10/09 10:26:18;;;;;;;11.02;4.10;;;;;;;12.47;43.46;102653.97;5011777;28;20062;-85
2021/10/09 10:28:46;;;;;;;10.25;4.82;;;;;;;12.44;43.67;102650.59;5015885;28;20044;-80
2021/10/09 10:31:14;;;;;;;8.13;4.88;;;;;;;12.38;44.26;102655.19;5015673;28;20049;-80
2021/10/09 10:33:48;;;;;;;11.13;5.22;;;;;;;12.52;43.74;102644.13;5012321;28;20157;-81
2021/10/09 10:36:37;;;;;;;10.15;4.90;;;;;;;12.36;44.50;102650.84;4995797;28;20140;-81
2021/10/09 10:39:07;;;;;;;13.35;4.85;;;;;;;12.40;44.25;102649.84;5015535;28;20420;-83
2021/10/09 10:41:59;;;;;;;11.57;5.20;;;;;;;12.43;44.49;102639.16;5035522;28;20077;-81
2021/10/09 10:44:42;;;;;;;8.93;4.75;;;;;;;12.63;44.75;102643.75;5025480;28;20136;-83
2021/10/09 10:47:37;;;;;;;9.82;5.30;;;;;;;12.65;44.90;102652.47;5024647;28;20061;-79
2021/10/09 10:50:18;;;;;;;11.40;5.75;;;;;;;12.58;45.08;102643.06;5015300;28;20112;-79
2021/10/09 10:52:58;;;;;;;9.60;5.13;;;;;;;12.70;44.88;102644.38;5015967;28;20489;-82
2021/10/09 10:56:06;;;;;;;9.90;5.05;;;;;;;12.71;45.10;102641.69;4990660;28;20494;-82
2021/10/09 10:58:34;;;;;;;19.23;6.55;;;;;;;12.52;45.52;102633.56;5014531;28;20053;-84
2021/10/09 11:01:16;;;;;;;11.65;5.53;;;;;;;12.65;45.96;102636.63;4995565;28;20064;-81
2021/10/09 11:03:55;;;;;;;11.55;6.20;;;;;;;12.52;46.18;102632.69;5011712;28;20510;-80
2021/10/09 11:06:24;;;;;;;9.57;5.75;;;;;;;12.63;46.20;102631.41;5010266;28;20052;-82
2021/10/09 11:08:54;;;;;;;13.55;6.03;;;;;;;12.84;46.16;102629.78;5011193;28;20053;-82
2021/10/09 11:11:35;;;;;;;7.68;4.65;;;;;;;12.88;45.51;102626.09;5010193;28;20045;-78
2021/10/09 11:14:02;;;;;;;10.63;4.85;;;;;;;12.96;44.79;102615.22;5015251;28;20046;-84
2021/10/09 11:16:34;;;;;;;10.50;4.30;;;;;;;13.07;43.80;102618.34;4981815;28;20049;-83
2021/10/09 11:19:02;;;;;;;8.65;5.05;;;;;;;13.16;44.03;102623.28;5010461;28;20061;-82
2021/10/09 11:21:31;;;;;;;12.27;4.93;;;;;;;13.23;44.83;102621.28;5019093;28;20040;-79
2021/10/09 11:24:00;;;;;;;10.68;5.63;;;;;;;13.19;45.46;102627.56;5011504;28;20058;-84
2021/10/09 11:26:28;;;;;;;10.25;5.63;;;;;;;13.42;45.41;102619.69;5014449;28;20061;-84
2021/10/09 11:29:01;;;;;;;10.57;5.07;;;;;;;13.35;45.10;102617.31;4995178;28;20060;-80
2021/10/09 11:31:29;;;;;;;10.50;5.03;;;;;;;13.33;44.97;102624.47;5006051;28;20057;-80
2021/10/09 11:33:59;;;;;;;16.08;5.20;;;;;;;13.37;44.94;102619.00;5015242;28;20050;-84
2021/10/09 11:36:27;;;;;;;15.43;5.75;;;;;;;13.29;45.26;102621.06;5024345;28;20060;-81
2021/10/09 11:39:10;;;;;;;8.55;5.00;;;;;;;13.32;45.34;102612.13;4997099;28;20058;-82
2021/10/09 11:41:40;;;;;;;11.18;5.20;;;;;;;13.53;45.08;102613.09;5011705;28;20058;-81
2021/10/09 11:44:27;;;;;;;13.02;4.45;;;;;;;13.60;42.49;102601.34;5015280;28;20068;-85
2021/10/09 11:55:13;;;;;;;11.02;4.13;;;;;;;13.82;41.24;102607.47;5005712;28;20053;-80
2021/10/09 11:57:41;;;;;;;8.07;4.07;;;;;;;13.77;41.45;102596.22;5021320;28;20053;-80
2021/10/09 12:00:27;;;;;;;8.82;3.75;;;;;;;13.86;42.00;102602.91;4994577;28;20056;-83
2021/10/09 12:03:01;;;;;;;;;;;;;;;13.94;41.81;102598.16;5017871;28;20060;-81
2021/10/09 12:06:08;;;;;;;7.18;3.63;;;;;;;13.91;40.97;102593.88;4995883;28;19921;-79
2021/10/09 12:08:58;;;;;;;7.57;3.70;;;;;;;13.90;41.24;102597.44;5028930;28;20048;-83
2021/10/09 12:11:26;;;;;;;9.65;4.05;;;;;;;14.04;41.33;102599.50;5009614;28;20500;-80
2021/10/09 12:13:56;;;;;;;11.82;4.20;;;;;;;13.86;41.19;102592.31;5013058;28;20054;-81
2021/10/09 12:16:48;;;;;;;6.07;3.65;;;;;;;13.98;41.61;102598.91;5015354;28;20048;-80
2021/10/09 12:19:26;;;;;;;6.32;3.63;;;;;;;13.88;41.31;102587.84;5004641;28;20449;-83
2021/10/09 12:21:57;;;;;;;7.55;4.10;;;;;;;13.84;40.53;102595.03;5005256;28;20072;-78
2021/10/09 12:24:26;;;;;;;9.73;4.22;;;;;;;13.90;40.90;102586.84;5017972;28;20050;-80
2021/10/09 12:27:06;;;;;;;8.63;4.07;;;;;;;13.99;40.86;102596.19;5019705;28;20185;-81
2021/10/09 12:29:35;;;;;;;9.40;3.25;;;;;;;14.05;40.29;102581.81;4995551;28;20068;-81
2021/10/09 12:32:14;;;;;;;6.68;4.40;;;;;;;14.13;39.78;102583.22;5001900;28;20060;-82
2021/10/09 12:34:42;;;;;;;5.93;3.20;;;;;;;14.13;39.86;102582.34;5016907;28;20053;-78
2021/10/09 12:37:14;;;;;;;5.07;3.45;;;;;;;14.09;39.95;102586.06;5022736;28;20422;-81
2021/10/09 12:39:43;;;;;;;5.38;3.30;;;;;;;14.02;40.23;102574.03;5013659;28;20072;-81
2021/10/09 12:42:12;;;;;;;5.63;3.05;;;;;;;14.09;39.90;102576.31;5020594;28;20084;-83
2021/10/09 12:44:40;;;;;;;12.40;3.75;;;;;;;14.13;40.22;102567.31;4994336;28;20175;-80
2021/10/09 12:47:07;;;;;;;7.85;3.55;;;;;;;14.00;39.86;102576.72;5004131;28;20284;-81
2021/10/09 12:49:35;;;;;;;14.00;4.10;;;;;;;13.97;39.66;102560.97;4996692;28;20084;-79
2021/10/09 12:52:02;;;;;;;6.97;3.88;;;;;;;13.98;39.81;102570.63;5015812;28;20060;-79
2021/10/09 12:54:32;;;;;;;8.65;3.97;;;;;;;14.03;39.79;102558.06;5008656;28;20066;-81
2021/10/09 12:56:59;;;;;;;10.27;4.30;;;;;;;14.14;40.12;102560.28;4999047;28;20060;-82
2021/10/09 12:59:28;;;;;;;9.93;4.00;;;;;;;14.04;40.42;102561.56;4993937;28;20042;-78
2021/10/09 13:01:56;;;;;;;7.00;4.53;;;;;;;14.10;40.59;102548.09;5004952;28;20045;-79
2021/10/09 13:04:23;;;;;;;10.07;4.45;;;;;;;14.09;42.79;102549.84;5014416;28;20157;-80
2021/10/09 13:06:51;;;;;;;11.13;4.80;;;;;;;14.04;43.78;102557.13;5020422;28;20057;-80
2021/10/09 13:09:18;;;;;;;9.65;5.00;;;;;;;14.04;43.82;102557.13;5017698;28;20346;-79
2021/10/09 13:11:49;;;;;;;16.20;4.50;;;;;;;14.02;42.42;102550.19;5022631;28;20046;-80
2021/10/09 13:14:17;;;;;;;9.10;4.40;;;;;;;14.05;42.30;102542.09;4994693;28;20062;-81
2021/10/09 13:16:44;;;;;;;10.38;5.13;;;;;;;14.10;42.77;102541.00;5007130;28;20145;-80
2021/10/09 13:19:16;;;;;;;7.60;4.30;;;;;;;14.11;42.83;102545.34;5008982;28;20565;-80
2021/10/09 13:21:43;;;;;;;12.57;6.20;;;;;;;14.13;43.15;102543.50;5018015;28;20130;-81
2021/10/09 13:24:10;;;;;;;14.07;5.47;;;;;;;14.12;42.69;102536.47;5012400;28;20144;-84
2021/10/09 13:26:38;;;;;;;7.10;4.07;;;;;;;14.15;41.83;102535.50;5024378;28;20133;-82
2021/10/09 13:29:06;;;;;;;7.55;3.45;;;;;;;14.24;41.08;102535.09;5015695;28;20052;-84
2021/10/09 13:31:34;;;;;;;6.68;3.15;;;;;;;14.25;40.40;102530.66;5001930;28;20095;-82